sensor_id;sensor_type;location;lat;lon;timestamp;pressure;altitude;pressure_sealevel;temperature;humidity
11448;BME280;43755;49.736;8.734;2023-03-20T00:01:52;98017.84;;;8.28;100.00
11448;BME280;43755;49.736;8.734;2023-03-20T00:03:53;98022.38;;;8.24;100.00
11448;BME280;43755;49.736;8.734;2023-03-20T00:05:55;98034.56;;;8.27;100.00
11448;BME280;43755;49.736;8.734;2023-03-20T00:07:57;98030.81;;;8.35;100.00
11448;BME280;43755;49.736;8.734;2023-03-20T00:09:58;98034.19;;;8.39;100.00
11448;BME280;43755;49.736;8.734;2023-03-20T00:12:01;98035.97;;;8.38;100.00
11448;BME280;43755;49.736;8.734;2023-03-20T00:14:05;98034.25;;;8.37;100.00
11448;BME280;43755;49.736;8.734;2023-03-20T00:16:08;98040.50;;;8.35;100.00
11448;BME280;43755;49.736;8.734;2023-03-20T00:18:14;98042.03;;;8.42;100.00
11448;BME280;43755;49.736;8.734;2023-03-20T00:20:17;98036.97;;;8.36;100.00
11448;BME280;43755;49.736;8.734;2023-03-20T00:22:19;98031.72;;;8.34;100.00
11448;BME280;43755;49.736;8.734;2023-03-20T00:24:22;98037.75;;;8.38;100.00
11448;BME280;43755;49.736;8.734;2023-03-20T00:26:26;98040.47;;;8.36;100.00
11448;BME280;43755;49.736;8.734;2023-03-20T00:28:35;98034.31;;;8.36;100.00
11448;BME280;43755;49.736;8.734;2023-03-20T00:30:39;98043.91;;;8.37;100.00
11448;BME280;43755;49.736;8.734;2023-03-20T00:32:41;98038.66;;;8.37;100.00
11448;BME280;43755;49.736;8.734;2023-03-20T00:34:42;98037.69;;;8.39;100.00
11448;BME280;43755;49.736;8.734;2023-03-20T00:36:44;98047.44;;;8.37;100.00
11448;BME280;43755;49.736;8.734;2023-03-20T00:38:45;98044.78;;;8.37;100.00
11448;BME280;43755;49.736;8.734;2023-03-20T00:40:46;98050.94;;;8.38;100.00
11448;BME280;43755;49.736;8.734;2023-03-20T00:42:50;98052.66;;;8.39;100.00
11448;BME280;43755;49.736;8.734;2023-03-20T00:44:58;98048.44;;;8.33;100.00
11448;BME280;43755;49.736;8.734;2023-03-20T00:47:03;98048.56;;;8.29;100.00
11448;BME280;43755;49.736;8.734;2023-03-20T00:49:08;98050.38;;;8.27;100.00
11448;BME280;43755;49.736;8.734;2023-03-20T00:51:10;98053.75;;;8.32;100.00
11448;BME280;43755;49.736;8.734;2023-03-20T00:53:12;98043.28;;;8.30;100.00
11448;BME280;43755;49.736;8.734;2023-03-20T00:55:13;98039.84;;;8.27;100.00
11448;BME280;43755;49.736;8.734;2023-03-20T00:57:17;98040.66;;;8.30;100.00
11448;BME280;43755;49.736;8.734;2023-03-20T00:59:23;98044.16;;;8.29;100.00
11448;BME280;43755;49.736;8.734;2023-03-20T01:01:28;98047.00;;;8.23;100.00
11448;BME280;43755;49.736;8.734;2023-03-20T01:03:31;98037.31;;;8.23;100.00
11448;BME280;43755;49.736;8.734;2023-03-20T01:05:32;98049.59;;;8.25;100.00
11448;BME280;43755;49.736;8.734;2023-03-20T01:07:33;98046.88;;;8.26;100.00
11448;BME280;43755;49.736;8.734;2023-03-20T01:09:35;98053.88;;;8.27;100.00
11448;BME280;43755;49.736;8.734;2023-03-20T01:11:37;98051.09;;;8.33;100.00
11448;BME280;43755;49.736;8.734;2023-03-20T01:13:40;98053.72;;;8.33;100.00
11448;BME280;43755;49.736;8.734;2023-03-20T01:15:41;98054.72;;;8.29;100.00
11448;BME280;43755;49.736;8.734;2023-03-20T01:17:45;98050.34;;;8.28;100.00
11448;BME280;43755;49.736;8.734;2023-03-20T01:19:47;98052.00;;;8.32;100.00
11448;BME280;43755;49.736;8.734;2023-03-20T01:21:48;98053.84;;;8.30;100.00
11448;BME280;43755;49.736;8.734;2023-03-20T01:23:50;98047.78;;;8.25;100.00
11448;BME280;43755;49.736;8.734;2023-03-20T01:25:51;98053.84;;;8.30;100.00
11448;BME280;43755;49.736;8.734;2023-03-20T01:27:53;98050.44;;;8.25;100.00
11448;BME280;43755;49.736;8.734;2023-03-20T01:29:57;98053.84;;;8.30;100.00
11448;BME280;43755;49.736;8.734;2023-03-20T01:31:58;98060.94;;;8.27;100.00
11448;BME280;43755;49.736;8.734;2023-03-20T01:34:02;98060.13;;;8.25;100.00
11448;BME280;43755;49.736;8.734;2023-03-20T01:36:03;98054.13;;;8.19;100.00
11448;BME280;43755;49.736;8.734;2023-03-20T01:38:10;98060.41;;;8.15;100.00
11448;BME280;43755;49.736;8.734;2023-03-20T01:40:27;98073.56;;;8.17;100.00
11448;BME280;43755;49.736;8.734;2023-03-20T01:42:30;98068.03;;;8.25;100.00
11448;BME280;43755;49.736;8.734;2023-03-20T01:44:33;98069.06;;;8.19;100.00
11448;BME280;43755;49.736;8.734;2023-03-20T01:46:35;98072.69;;;8.16;100.00
11448;BME280;43755;49.736;8.734;2023-03-20T01:48:55;98069.22;;;8.14;100.00
11448;BME280;43755;49.736;8.734;2023-03-20T01:50:58;98071.00;;;8.14;100.00
11448;BME280;43755;49.736;8.734;2023-03-20T01:53:04;98064.81;;;8.15;100.00
11448;BME280;43755;49.736;8.734;2023-03-20T01:55:08;98079.69;;;8.17;100.00
11448;BME280;43755;49.736;8.734;2023-03-20T01:57:11;98071.00;;;8.14;100.00
11448;BME280;43755;49.736;8.734;2023-03-20T01:59:18;98062.69;;;8.26;100.00
11448;BME280;43755;49.736;8.734;2023-03-20T02:01:21;98056.47;;;8.29;100.00
11448;BME280;43755;49.736;8.734;2023-03-20T02:03:24;98063.53;;;8.28;100.00
11448;BME280;43755;49.736;8.734;2023-03-20T02:05:26;98058.25;;;8.28;100.00
11448;BME280;43755;49.736;8.734;2023-03-20T02:07:30;98055.63;;;8.28;100.00
11448;BME280;43755;49.736;8.734;2023-03-20T02:09:33;98058.22;;;8.30;100.00
11448;BME280;43755;49.736;8.734;2023-03-20T02:11:36;98055.56;;;8.30;100.00
11448;BME280;43755;49.736;8.734;2023-03-20T02:13:38;98055.63;;;8.28;100.00
11448;BME280;43755;49.736;8.734;2023-03-20T02:15:55;98057.50;;;8.25;100.00
11448;BME280;43755;49.736;8.734;2023-03-20T02:17:57;98054.75;;;8.28;100.00
11448;BME280;43755;49.736;8.734;2023-03-20T02:20:05;98059.16;;;8.27;100.00
11448;BME280;43755;49.736;8.734;2023-03-20T02:22:30;98053.22;;;8.20;100.00
11448;BME280;43755;49.736;8.734;2023-03-20T02:25:08;98054.28;;;8.15;100.00
11448;BME280;43755;49.736;8.734;2023-03-20T02:27:24;98059.66;;;8.12;100.00
11448;BME280;43755;49.736;8.734;2023-03-20T02:29:56;98057.91;;;8.12;100.00
11448;BME280;43755;49.736;8.734;2023-03-20T02:32:19;98053.63;;;8.08;100.00
11448;BME280;43755;49.736;8.734;2023-03-20T02:34:53;98068.56;;;8.08;100.00
11448;BME280;43755;49.736;8.734;2023-03-20T02:41:59;98071.16;;;8.09;100.00
11448;BME280;43755;49.736;8.734;2023-03-20T02:44:07;98063.06;;;8.15;100.00
11448;BME280;43755;49.736;8.734;2023-03-20T02:46:19;98065.69;;;8.15;100.00
11448;BME280;43755;49.736;8.734;2023-03-20T02:48:32;98071.00;;;8.14;100.00
11448;BME280;43755;49.736;8.734;2023-03-20T02:50:42;98066.63;;;8.13;100.00
11448;BME280;43755;49.736;8.734;2023-03-20T02:52:53;98063.72;;;8.22;100.00
11448;BME280;43755;49.736;8.734;2023-03-20T02:55:05;98068.28;;;8.17;100.00
11448;BME280;43755;49.736;8.734;2023-03-20T02:57:15;98067.31;;;8.19;100.00
11448;BME280;43755;49.736;8.734;2023-03-20T02:59:24;98067.22;;;8.22;100.00
11448;BME280;43755;49.736;8.734;2023-03-20T03:01:30;98071.00;;;8.14;100.00
11448;BME280;43755;49.736;8.734;2023-03-20T03:03:36;98072.69;;;8.16;100.00
11448;BME280;43755;49.736;8.734;2023-03-20T03:05:42;98076.22;;;8.15;100.00
11448;BME280;43755;49.736;8.734;2023-03-20T03:07:47;98077.06;;;8.17;100.00
11448;BME280;43755;49.736;8.734;2023-03-20T03:09:53;98079.63;;;8.19;100.00
11448;BME280;43755;49.736;8.734;2023-03-20T03:12:00;98077.91;;;8.18;100.00
11448;BME280;43755;49.736;8.734;2023-03-20T03:14:03;98080.69;;;8.13;100.00
11448;BME280;43755;49.736;8.734;2023-03-20T03:16:08;98080.81;;;8.09;100.00
11448;BME280;43755;49.736;8.734;2023-03-20T03:18:13;98076.38;;;8.11;100.00
11448;BME280;43755;49.736;8.734;2023-03-20T03:20:20;98073.81;;;8.08;100.00
11448;BME280;43755;49.736;8.734;2023-03-20T03:22:22;98074.53;;;8.13;100.00
11448;BME280;43755;49.736;8.734;2023-03-20T03:24:28;98077.09;;;8.16;100.00
11448;BME280;43755;49.736;8.734;2023-03-20T03:26:33;98076.28;;;8.14;100.00
11448;BME280;43755;49.736;8.734;2023-03-20T03:28:40;98077.13;;;8.14;100.00
11448;BME280;43755;49.736;8.734;2023-03-20T03:30:43;98082.56;;;8.10;100.00
11448;BME280;43755;49.736;8.734;2023-03-20T03:32:48;98076.47;;;8.08;100.00
11448;BME280;43755;49.736;8.734;2023-03-20T03:34:50;98075.31;;;8.16;100.00
11448;BME280;43755;49.736;8.734;2023-03-20T03:36:57;98067.31;;;8.19;100.00
11448;BME280;43755;49.736;8.734;2023-03-20T03:39:07;98070.09;;;8.15;100.00
11448;BME280;43755;49.736;8.734;2023-03-20T03:41:18;98065.66;;;8.17;100.00
11448;BME280;43755;49.736;8.734;2023-03-20T03:43:26;98073.59;;;8.15;100.00
11448;BME280;43755;49.736;8.734;2023-03-20T03:45:33;98075.47;;;8.12;100.00
11448;BME280;43755;49.736;8.734;2023-03-20T03:47:38;98077.91;;;8.18;100.00
11448;BME280;43755;49.736;8.734;2023-03-20T03:49:46;98067.22;;;8.22;100.00
11448;BME280;43755;49.736;8.734;2023-03-20T03:51:53;98076.00;;;8.23;100.00
11448;BME280;43755;49.736;8.734;2023-03-20T03:53:58;98073.41;;;8.21;100.00
11448;BME280;43755;49.736;8.734;2023-03-20T03:56:05;98071.63;;;8.22;100.00
11448;BME280;43755;49.736;8.734;2023-03-20T03:58:10;98079.50;;;8.23;100.00
11448;BME280;43755;49.736;8.734;2023-03-20T04:00:16;98073.41;;;8.21;100.00
11448;BME280;43755;49.736;8.734;2023-03-20T04:02:21;98086.56;;;8.21;100.00
11448;BME280;43755;49.736;8.734;2023-03-20T04:04:24;98084.75;;;8.23;100.00
11448;BME280;43755;49.736;8.734;2023-03-20T04:06:27;98097.06;;;8.23;100.00
11448;BME280;43755;49.736;8.734;2023-03-20T04:08:29;98096.06;;;8.27;100.00
11448;BME280;43755;49.736;8.734;2023-03-20T04:10:30;98094.31;;;8.26;100.00
11448;BME280;43755;49.736;8.734;2023-03-20T04:12:34;98096.16;;;8.24;100.00
11448;BME280;43755;49.736;8.734;2023-03-20T04:14:36;98103.09;;;8.27;100.00
11448;BME280;43755;49.736;8.734;2023-03-20T04:16:37;98096.88;;;8.29;100.00
11448;BME280;43755;49.736;8.734;2023-03-20T04:18:40;98098.81;;;8.24;100.00
11448;BME280;43755;49.736;8.734;2023-03-20T04:20:41;98102.44;;;8.20;100.00
11448;BME280;43755;49.736;8.734;2023-03-20T04:22:43;98106.16;;;8.13;100.00
11448;BME280;43755;49.736;8.734;2023-03-20T04:24:44;98111.16;;;8.22;100.00
11448;BME280;43755;49.736;8.734;2023-03-20T04:26:46;98098.94;;;8.19;100.00
11448;BME280;43755;49.736;8.734;2023-03-20T04:28:49;98105.03;;;8.21;100.00
11448;BME280;43755;49.736;8.734;2023-03-20T04:30:51;98101.69;;;8.16;100.00
11448;BME280;43755;49.736;8.734;2023-03-20T04:32:53;98099.91;;;8.17;100.00
11448;BME280;43755;49.736;8.734;2023-03-20T04:34:55;98106.78;;;8.21;100.00
11448;BME280;43755;49.736;8.734;2023-03-20T04:36:57;98098.88;;;8.21;100.00
11448;BME280;43755;49.736;8.734;2023-03-20T04:39:00;98101.47;;;8.22;100.00
11448;BME280;43755;49.736;8.734;2023-03-20T04:41:01;98096.25;;;8.21;100.00
11448;BME280;43755;49.736;8.734;2023-03-20T04:43:03;98103.97;;;8.27;100.00
11448;BME280;43755;49.736;8.734;2023-03-20T04:45:06;98101.28;;;8.30;100.00
11448;BME280;43755;49.736;8.734;2023-03-20T04:47:08;98103.13;;;8.25;100.00
11448;BME280;43755;49.736;8.734;2023-03-20T04:49:09;98103.25;;;8.22;100.00
11448;BME280;43755;49.736;8.734;2023-03-20T04:51:12;98104.13;;;8.22;100.00
11448;BME280;43755;49.736;8.734;2023-03-20T04:53:14;98104.06;;;8.24;100.00
11448;BME280;43755;49.736;8.734;2023-03-20T04:55:15;98103.09;;;8.27;100.00
11448;BME280;43755;49.736;8.734;2023-03-20T04:57:17;98106.72;;;8.24;100.00
11448;BME280;43755;49.736;8.734;2023-03-20T04:59:18;98110.34;;;8.20;100.00
11448;BME280;43755;49.736;8.734;2023-03-20T05:01:20;98107.69;;;8.20;100.00
11448;BME280;43755;49.736;8.734;2023-03-20T05:03:22;98115.59;;;8.20;100.00
11448;BME280;43755;49.736;8.734;2023-03-20T05:05:23;98117.34;;;8.21;100.00
11448;BME280;43755;49.736;8.734;2023-03-20T05:07:26;98119.06;;;8.22;100.00
11448;BME280;43755;49.736;8.734;2023-03-20T05:09:28;98126.06;;;8.23;100.00
11448;BME280;43755;49.736;8.734;2023-03-20T05:11:29;98115.50;;;8.25;100.00
11448;BME280;43755;49.736;8.734;2023-03-20T05:13:30;98118.16;;;8.23;100.00
11448;BME280;43755;49.736;8.734;2023-03-20T05:15:32;98121.50;;;8.28;100.00
11448;BME280;43755;49.736;8.734;2023-03-20T05:17:33;98119.72;;;8.30;100.00
11448;BME280;43755;49.736;8.734;2023-03-20T05:19:35;98115.16;;;8.35;100.00
11448;BME280;43755;49.736;8.734;2023-03-20T05:21:37;98119.63;;;8.33;100.00
11448;BME280;43755;49.736;8.734;2023-03-20T05:23:40;98123.25;;;8.29;100.00
11448;BME280;43755;49.736;8.734;2023-03-20T05:25:42;98123.41;;;8.25;100.00
11448;BME280;43755;49.736;8.734;2023-03-20T05:27:44;98128.56;;;8.28;100.00
11448;BME280;43755;49.736;8.734;2023-03-20T05:29:46;98123.47;;;8.21;100.00
11448;BME280;43755;49.736;8.734;2023-03-20T05:31:48;98125.06;;;8.27;100.00
11448;BME280;43755;49.736;8.734;2023-03-20T05:33:49;98120.69;;;8.26;100.00
11448;BME280;43755;49.736;8.734;2023-03-20T05:35:50;98115.34;;;8.29;100.00
11448;BME280;43755;49.736;8.734;2023-03-20T05:37:52;98118.13;;;8.25;100.00
11448;BME280;43755;49.736;8.734;2023-03-20T05:39:55;98111.88;;;8.27;100.00
11448;BME280;43755;49.736;8.734;2023-03-20T05:41:56;98110.06;;;8.29;100.00
11448;BME280;43755;49.736;8.734;2023-03-20T05:43:57;98110.94;;;8.30;100.00
11448;BME280;43755;49.736;8.734;2023-03-20T05:45:59;98119.53;;;8.36;100.00
11448;BME280;43755;49.736;8.734;2023-03-20T05:48:00;98121.38;;;8.33;100.00
11448;BME280;43755;49.736;8.734;2023-03-20T05:50:02;98115.22;;;8.34;100.00
11448;BME280;43755;49.736;8.734;2023-03-20T05:52:03;98118.66;;;8.36;100.00
11448;BME280;43755;49.736;8.734;2023-03-20T05:54:05;98101.28;;;8.29;100.00
11448;BME280;43755;49.736;8.734;2023-03-20T05:56:08;98100.97;;;8.39;100.00
11448;BME280;43755;49.736;8.734;2023-03-20T05:58:10;98098.13;;;8.45;100.00
11448;BME280;43755;49.736;8.734;2023-03-20T06:00:12;98091.09;;;8.46;100.00
11448;BME280;43755;49.736;8.734;2023-03-20T06:02:14;98096.38;;;8.46;100.00
11448;BME280;43755;49.736;8.734;2023-03-20T06:04:16;98118.66;;;8.36;100.00
11448;BME280;43755;49.736;8.734;2023-03-20T06:06:17;98118.88;;;8.28;100.00
11448;BME280;43755;49.736;8.734;2023-03-20T06:08:19;98123.41;;;8.25;100.00
11448;BME280;43755;49.736;8.734;2023-03-20T06:10:20;98131.19;;;8.28;100.00
11448;BME280;43755;49.736;8.734;2023-03-20T06:12:23;98122.38;;;8.29;100.00
11448;BME280;43755;49.736;8.734;2023-03-20T06:14:25;98119.56;;;8.35;100.00
11448;BME280;43755;49.736;8.734;2023-03-20T06:16:26;98132.09;;;8.27;100.00
11448;BME280;43755;49.736;8.734;2023-03-20T06:18:28;98139.22;;;8.25;100.00
11448;BME280;43755;49.736;8.734;2023-03-20T06:20:29;98139.25;;;8.23;100.00
11448;BME280;43755;49.736;8.734;2023-03-20T06:22:31;98140.88;;;8.27;100.00
11448;BME280;43755;49.736;8.734;2023-03-20T06:24:33;98136.47;;;8.28;100.00
11448;BME280;43755;49.736;8.734;2023-03-20T06:26:35;98140.81;;;8.30;100.00
11448;BME280;43755;49.736;8.734;2023-03-20T06:28:37;98143.31;;;8.35;100.00
11448;BME280;43755;49.736;8.734;2023-03-20T06:30:39;98142.44;;;8.34;100.00
11448;BME280;43755;49.736;8.734;2023-03-20T06:32:41;98143.16;;;8.39;100.00
11448;BME280;43755;49.736;8.734;2023-03-20T06:34:42;98139.56;;;8.42;100.00
11448;BME280;43755;49.736;8.734;2023-03-20T06:36:44;98142.41;;;8.36;100.00
11448;BME280;43755;49.736;8.734;2023-03-20T06:38:46;98148.41;;;8.39;100.00
11448;BME280;43755;49.736;8.734;2023-03-20T06:40:47;98139.59;;;8.40;100.00
11448;BME280;43755;49.736;8.734;2023-03-20T06:42:48;98142.94;;;8.45;100.00
11448;BME280;43755;49.736;8.734;2023-03-20T06:44:51;98149.97;;;8.46;100.00
11448;BME280;43755;49.736;8.734;2023-03-20T06:46:53;98146.41;;;8.47;100.00
11448;BME280;43755;49.736;8.734;2023-03-20T06:48:54;98156.03;;;8.48;100.00
11448;BME280;43755;49.736;8.734;2023-03-20T06:50:56;98161.44;;;8.44;100.00
11448;BME280;43755;49.736;8.734;2023-03-20T06:52:57;98158.72;;;8.47;100.00
11448;BME280;43755;49.736;8.734;2023-03-20T06:54:58;98159.59;;;8.47;100.00
11448;BME280;43755;49.736;8.734;2023-03-20T06:57:00;98164.00;;;8.47;100.00
11448;BME280;43755;49.736;8.734;2023-03-20T06:59:01;98159.00;;;8.38;100.00
11448;BME280;43755;49.736;8.734;2023-03-20T07:01:09;98162.31;;;8.44;100.00
11448;BME280;43755;49.736;8.734;2023-03-20T07:03:11;98166.69;;;8.45;100.00
11448;BME280;43755;49.736;8.734;2023-03-20T07:05:13;98166.66;;;8.47;100.00
11448;BME280;43755;49.736;8.734;2023-03-20T07:07:14;98162.94;;;8.52;100.00
11448;BME280;43755;49.736;8.734;2023-03-20T07:09:16;98165.66;;;8.49;100.00
11448;BME280;43755;49.736;8.734;2023-03-20T07:11:17;98163.19;;;8.45;100.00
11448;BME280;43755;49.736;8.734;2023-03-20T07:13:19;98166.06;;;8.37;100.00
11448;BME280;43755;49.736;8.734;2023-03-20T07:15:20;98166.88;;;8.39;100.00
11448;BME280;43755;49.736;8.734;2023-03-20T07:17:23;98162.63;;;8.35;100.00
11448;BME280;43755;49.736;8.734;2023-03-20T07:19:25;98161.38;;;8.47;100.00
11448;BME280;43755;49.736;8.734;2023-03-20T07:21:28;98152.63;;;8.45;100.00
11448;BME280;43755;49.736;8.734;2023-03-20T07:23:30;98154.16;;;8.52;100.00
11448;BME280;43755;49.736;8.734;2023-03-20T07:25:33;98145.44;;;8.50;100.00
11448;BME280;43755;49.736;8.734;2023-03-20T07:27:35;98156.56;;;8.59;100.00
11448;BME280;43755;49.736;8.734;2023-03-20T07:29:36;98158.44;;;8.56;100.00
11448;BME280;43755;49.736;8.734;2023-03-20T07:31:38;98164.69;;;8.53;100.00
11448;BME280;43755;49.736;8.734;2023-03-20T07:33:41;98162.16;;;8.49;100.00
11448;BME280;43755;49.736;8.734;2023-03-20T07:35:42;98162.28;;;8.46;100.00
11448;BME280;43755;49.736;8.734;2023-03-20T07:37:43;98163.09;;;8.48;100.00
11448;BME280;43755;49.736;8.734;2023-03-20T07:39:45;98164.19;;;8.41;100.00
11448;BME280;43755;49.736;8.734;2023-03-20T07:41:46;98163.28;;;8.42;100.00
11448;BME280;43755;49.736;8.734;2023-03-20T07:43:48;98170.94;;;8.49;100.00
11448;BME280;43755;49.736;8.734;2023-03-20T07:45:49;98164.59;;;8.55;100.00
11448;BME280;43755;49.736;8.734;2023-03-20T07:47:50;98168.63;;;8.67;100.00
11448;BME280;43755;49.736;8.734;2023-03-20T07:49:53;98164.28;;;8.66;100.00
11448;BME280;43755;49.736;8.734;2023-03-20T07:51:55;98167.00;;;8.62;100.00
11448;BME280;43755;49.736;8.734;2023-03-20T07:53:56;98175.06;;;8.58;100.00
11448;BME280;43755;49.736;8.734;2023-03-20T07:55:58;98174.00;;;8.63;100.00
11448;BME280;43755;49.736;8.734;2023-03-20T07:57:59;98172.38;;;8.59;100.00
11448;BME280;43755;49.736;8.734;2023-03-20T08:00:00;98172.47;;;8.56;100.00
11448;BME280;43755;49.736;8.734;2023-03-20T08:02:03;98169.88;;;8.55;100.00
11448;BME280;43755;49.736;8.734;2023-03-20T08:04:04;98173.50;;;8.52;100.00
11448;BME280;43755;49.736;8.734;2023-03-20T08:06:08;98178.50;;;8.60;100.00
11448;BME280;43755;49.736;8.734;2023-03-20T08:08:10;98187.59;;;8.51;100.00
11448;BME280;43755;49.736;8.734;2023-03-20T08:10:11;98177.88;;;8.53;100.00
11448;BME280;43755;49.736;8.734;2023-03-20T08:12:12;98181.47;;;8.49;100.00
11448;BME280;43755;49.736;8.734;2023-03-20T08:14:16;98180.78;;;8.44;100.00
11448;BME280;43755;49.736;8.734;2023-03-20T08:16:18;98184.09;;;8.51;100.00
11448;BME280;43755;49.736;8.734;2023-03-20T08:18:20;98187.03;;;8.42;100.00
11448;BME280;43755;49.736;8.734;2023-03-20T08:20:21;98187.78;;;8.45;100.00
11448;BME280;43755;49.736;8.734;2023-03-20T08:22:24;98192.19;;;8.45;100.00
11448;BME280;43755;49.736;8.734;2023-03-20T08:24:25;98192.13;;;8.46;100.00
11448;BME280;43755;49.736;8.734;2023-03-20T08:26:27;98182.31;;;8.51;100.00
11448;BME280;43755;49.736;8.734;2023-03-20T08:28:28;98185.84;;;8.50;100.00
11448;BME280;43755;49.736;8.734;2023-03-20T08:30:30;98182.97;;;8.58;100.00
11448;BME280;43755;49.736;8.734;2023-03-20T08:32:31;98178.84;;;8.49;100.00
11448;BME280;43755;49.736;8.734;2023-03-20T08:34:33;98183.13;;;8.53;100.00
11448;BME280;43755;49.736;8.734;2023-03-20T08:36:34;98182.88;;;8.61;100.00
11448;BME280;43755;49.736;8.734;2023-03-20T08:38:37;98192.13;;;8.74;100.00
11448;BME280;43755;49.736;8.734;2023-03-20T08:40:39;98190.19;;;8.79;100.00
11448;BME280;43755;49.736;8.734;2023-03-20T08:42:41;98195.50;;;8.78;100.00
11448;BME280;43755;49.736;8.734;2023-03-20T08:44:43;98198.63;;;8.90;100.00
11448;BME280;43755;49.736;8.734;2023-03-20T08:46:45;98204.16;;;8.83;100.00
11448;BME280;43755;49.736;8.734;2023-03-20T08:48:46;98213.88;;;8.81;100.00
11448;BME280;43755;49.736;8.734;2023-03-20T08:50:47;98215.59;;;8.83;100.00
11448;BME280;43755;49.736;8.734;2023-03-20T08:52:49;98212.13;;;8.81;100.00
11448;BME280;43755;49.736;8.734;2023-03-20T08:54:52;98214.50;;;8.89;100.00
11448;BME280;43755;49.736;8.734;2023-03-20T08:56:54;98214.78;;;8.80;100.00
11448;BME280;43755;49.736;8.734;2023-03-20T08:58:55;98216.84;;;8.72;100.00
11448;BME280;43755;49.736;8.734;2023-03-20T09:01:01;98227.06;;;8.81;100.00
11448;BME280;43755;49.736;8.734;2023-03-20T09:03:03;98219.16;;;8.81;100.00
11448;BME280;43755;49.736;8.734;2023-03-20T09:05:05;98219.38;;;8.75;100.00
11448;BME280;43755;49.736;8.734;2023-03-20T09:07:07;98223.63;;;8.79;100.00
11448;BME280;43755;49.736;8.734;2023-03-20T09:09:08;98225.78;;;8.66;100.00
11448;BME280;43755;49.736;8.734;2023-03-20T09:11:11;98225.78;;;8.66;100.00
11448;BME280;43755;49.736;8.734;2023-03-20T09:13:13;98226.84;;;8.60;100.00
11448;BME280;43755;49.736;8.734;2023-03-20T09:15:15;98223.41;;;8.58;100.00
11448;BME280;43755;49.736;8.734;2023-03-20T09:17:16;98219.94;;;8.56;100.00
11448;BME280;43755;49.736;8.734;2023-03-20T09:19:17;98220.16;;;8.49;100.00
11448;BME280;43755;49.736;8.734;2023-03-20T09:21:19;98220.13;;;8.50;100.00
11448;BME280;43755;49.736;8.734;2023-03-20T09:23:20;98230.78;;;8.47;100.00
11448;BME280;43755;49.736;8.734;2023-03-20T09:25:22;98233.44;;;8.47;100.00
11448;BME280;43755;49.736;8.734;2023-03-20T09:27:25;98236.00;;;8.49;100.00
11448;BME280;43755;49.736;8.734;2023-03-20T09:29:26;98238.88;;;8.41;100.00
11448;BME280;43755;49.736;8.734;2023-03-20T09:31:28;98243.03;;;8.48;100.00
11448;BME280;43755;49.736;8.734;2023-03-20T09:33:29;98241.22;;;8.50;100.00
11448;BME280;43755;49.736;8.734;2023-03-20T09:35:31;98241.34;;;8.47;100.00
11448;BME280;43755;49.736;8.734;2023-03-20T09:37:32;98250.56;;;8.60;100.00
11448;BME280;43755;49.736;8.734;2023-03-20T09:39:34;98245.78;;;8.45;100.00
11448;BME280;43755;49.736;8.734;2023-03-20T09:41:35;98250.03;;;8.49;100.00
11448;BME280;43755;49.736;8.734;2023-03-20T09:43:45;98250.69;;;8.57;100.00
11448;BME280;43755;49.736;8.734;2023-03-20T09:45:57;98243.47;;;8.62;100.00
11448;BME280;43755;49.736;8.734;2023-03-20T09:48:04;98246.03;;;8.66;100.00
11448;BME280;43755;49.736;8.734;2023-03-20T09:50:25;98257.69;;;8.58;100.00
11448;BME280;43755;49.736;8.734;2023-03-20T09:52:30;98256.59;;;8.66;100.00
11448;BME280;43755;49.736;8.734;2023-03-20T09:54:35;98258.97;;;8.73;100.00
11448;BME280;43755;49.736;8.734;2023-03-20T09:56:39;98262.28;;;8.80;100.00
11448;BME280;43755;49.736;8.734;2023-03-20T09:58:44;98261.03;;;8.63;100.00
11448;BME280;43755;49.736;8.734;2023-03-20T10:00:49;98258.38;;;8.65;100.00
11448;BME280;43755;49.736;8.734;2023-03-20T10:02:52;98260.81;;;8.71;100.00
11448;BME280;43755;49.736;8.734;2023-03-20T10:04:56;98253.88;;;8.67;100.00
11448;BME280;43755;49.736;8.734;2023-03-20T10:07:00;98248.22;;;8.79;100.00
11448;BME280;43755;49.736;8.734;2023-03-20T10:09:10;98257.13;;;9.03;100.00
11448;BME280;43755;49.736;8.734;2023-03-20T10:11:29;98255.81;;;9.16;100.00
11448;BME280;43755;49.736;8.734;2023-03-20T10:13:50;98247.50;;;9.28;100.00
11448;BME280;43755;49.736;8.734;2023-03-20T10:16:01;98253.16;;;9.42;100.00
11448;BME280;43755;49.736;8.734;2023-03-20T10:18:13;98249.00;;;9.60;100.00
11448;BME280;43755;49.736;8.734;2023-03-20T10:20:24;98249.44;;;9.73;100.00
11448;BME280;43755;49.736;8.734;2023-03-20T10:22:32;98249.63;;;9.68;100.00
11448;BME280;43755;49.736;8.734;2023-03-20T10:24:38;98248.59;;;9.72;100.00
11448;BME280;43755;49.736;8.734;2023-03-20T10:26:40;98248.44;;;9.77;100.00
11448;BME280;43755;49.736;8.734;2023-03-20T10:28:45;98247.16;;;9.89;100.00
11448;BME280;43755;49.736;8.734;2023-03-20T10:31:00;98254.22;;;10.11;100.00
11448;BME280;43755;49.736;8.734;2023-03-20T10:33:17;98246.25;;;10.13;100.00
11448;BME280;43755;49.736;8.734;2023-03-20T10:35:27;98255.84;;;10.15;100.00
11448;BME280;43755;49.736;8.734;2023-03-20T10:37:43;98252.72;;;10.29;100.00
11448;BME280;43755;49.736;8.734;2023-03-20T10:39:53;98249.31;;;10.25;100.00
11448;BME280;43755;49.736;8.734;2023-03-20T10:42:01;98246.91;;;10.19;100.00
11448;BME280;43755;49.736;8.734;2023-03-20T10:44:04;98246.66;;;10.25;100.00
11448;BME280;43755;49.736;8.734;2023-03-20T10:46:10;98249.19;;;10.52;100.00
11448;BME280;43755;49.736;8.734;2023-03-20T10:48:16;98248.34;;;10.51;100.00
11448;BME280;43755;49.736;8.734;2023-03-20T10:50:22;98251.84;;;10.52;100.00
11448;BME280;43755;49.736;8.734;2023-03-20T10:52:27;98250.00;;;10.54;100.00
11448;BME280;43755;49.736;8.734;2023-03-20T10:54:33;98253.47;;;10.78;100.00
11448;BME280;43755;49.736;8.734;2023-03-20T10:56:37;98242.13;;;10.74;100.00
11448;BME280;43755;49.736;8.734;2023-03-20T10:58:42;98243.34;;;10.89;100.00
11448;BME280;43755;49.736;8.734;2023-03-20T11:00:45;98239.53;;;10.73;100.00
11448;BME280;43755;49.736;8.734;2023-03-20T11:02:48;98244.72;;;10.54;100.00